Tijeras, NM (87059)

9:17 PM MST on December 07, 2016 (GMT -0700)
Cedar Crest | | Change Station

Elev 6617 ft 35.10 °N, 106.39 °W | Updated 36 seconds ago

Mostly Cloudy
Mostly Cloudy
23.8 °F
Feels Like 24 °F
N
0.0
Wind Variable Wind from West

Today
High -- | Low -- °F
--% Chance of Precip.
Yesterday
High -- | Low -- °F
Precip. -- in
Pressure 30.19 in
Visibility 10.0 miles
Clouds Mostly Cloudy 25000 ft
Windchill 24 °F
Dew Point 16 °F
Humidity 71%
Rainfall 0.00 in
Snow Depth Not available.
7:00 AM 4:53 PM
First Quarter, 59% visible
METAR KABQ 080352Z 34005KT 10SM BKN250 02/M08 A3020 RMK AO2 SLP223 T00221083
Pressure 30.19 in
Visibility 10.0 miles
Clouds Mostly Cloudy 25000 ft
Windchill 24 °F
Dew Point 16 °F
Humidity 71%
Rainfall 0.00 in
Snow Depth Not available.
7:00 AM 4:53 PM
First Quarter, 59% visible
METAR KABQ 080352Z 34005KT 10SM BKN250 02/M08 A3020 RMK AO2 SLP223 T00221083

10-Day Weather Forecast

Almanac

Astronomy

Dec. 07, 2016 Rise Set
Actual Time
Civil Twilight
Nautical Twilight
Astronomical Twilight
Moon
Length of Visible Light
Length of Day
Tomorrow will be .
, % of the Moon is Illuminated

Today's Extremes

State Highs State Lows

Community

WunderPhotos

Upload Photos

1,956,259 photos uploaded!

WunderBlog® & News

Nearby

Air Quality

  Air Quality AQ Index Pollutant
Not available.

Snow Depth

Station Depth Elevation

Earthquake Activity

City Distance Mag. Time & Date
Minimum magnitude displayed is 2.5.

Coastal Water Temperatures

Place Temperature

Stations

Nearby Weather Stations

Station Location Temp. Windchill Dew Point Humidity Wind Precip. Elev Updated Type
                   

Watches & Warnings

There are currently no watches in effect.